地図

経路データ

SID SEASON NUMBER BASIN SUBBASIN NAME ISO_TIME NATURE LAT LON WMO_WIND WMO_PRES WMO_AGENCY TRACK_TYPE DIST2LAND LANDFALL IFLAG USA_AGENCY USA_ATCF_ID USA_LAT USA_LON USA_RECORD USA_STATUS USA_WIND USA_PRES USA_SSHS USA_R34_NE USA_R34_SE USA_R34_SW USA_R34_NW USA_R50_NE USA_R50_SE USA_R50_SW USA_R50_NW USA_R64_NE USA_R64_SE USA_R64_SW USA_R64_NW USA_POCI USA_ROCI USA_RMW USA_EYE TOKYO_LAT TOKYO_LON TOKYO_GRADE TOKYO_WIND TOKYO_PRES TOKYO_R50_DIR TOKYO_R50_LONG TOKYO_R50_SHORT TOKYO_R30_DIR TOKYO_R30_LONG TOKYO_R30_SHORT TOKYO_LAND CMA_LAT CMA_LON CMA_CAT CMA_WIND CMA_PRES HKO_LAT HKO_LON HKO_CAT HKO_WIND HKO_PRES NEWDELHI_LAT NEWDELHI_LON NEWDELHI_GRADE NEWDELHI_WIND NEWDELHI_PRES NEWDELHI_CI NEWDELHI_DP NEWDELHI_POCI REUNION_LAT REUNION_LON REUNION_TYPE REUNION_WIND REUNION_PRES REUNION_TNUM REUNION_CI REUNION_RMW REUNION_R34_NE REUNION_R34_SE REUNION_R34_SW REUNION_R34_NW REUNION_R50_NE REUNION_R50_SE REUNION_R50_SW REUNION_R50_NW REUNION_R64_NE REUNION_R64_SE REUNION_R64_SW REUNION_R64_NW BOM_LAT BOM_LON BOM_TYPE BOM_WIND BOM_PRES BOM_TNUM BOM_CI BOM_RMW BOM_R34_NE BOM_R34_SE BOM_R34_SW BOM_R34_NW BOM_R50_NE BOM_R50_SE BOM_R50_SW BOM_R50_NW BOM_R64_NE BOM_R64_SE BOM_R64_SW BOM_R64_NW BOM_ROCI BOM_POCI BOM_EYE BOM_POS_METHOD BOM_PRES_METHOD NADI_LAT NADI_LON NADI_CAT NADI_WIND NADI_PRES WELLINGTON_LAT WELLINGTON_LON WELLINGTON_WIND WELLINGTON_PRES DS824_LAT DS824_LON DS824_STAGE DS824_WIND DS824_PRES TD9636_LAT TD9636_LON TD9636_STAGE TD9636_WIND TD9636_PRES TD9635_LAT TD9635_LON TD9635_WIND TD9635_PRES TD9635_ROCI NEUMANN_LAT NEUMANN_LON NEUMANN_CLASS NEUMANN_WIND NEUMANN_PRES MLC_LAT MLC_LON MLC_CLASS MLC_WIND MLC_PRES USA_GUST BOM_GUST BOM_GUST_PER REUNION_GUST REUNION_GUST_PER USA_SEAHGT USA_SEARAD_NE USA_SEARAD_SE USA_SEARAD_SW USA_SEARAD_NW STORM_SPEED STORM_DIR
1915201N17141 1915 19 WP MM NOT_NAMED 1915-07-19 22:00:00 NR 16.6000 140.900 main 1730 1699 __________O___ -1 16.6000 140.900 7 10 270
1915201N17141 1915 19 WP MM NOT_NAMED 1915-07-20 00:00:00 NR 16.6008 140.564 main 1699 1647 __________P___ -1 16.6008 140.564 7 10 270
1915201N17141 1915 19 WP MM NOT_NAMED 1915-07-20 03:00:00 NR 16.6012 140.067 main 1647 1596 __________P___ -1 16.6012 140.067 7 9 270
1915201N17141 1915 19 WP MM NOT_NAMED 1915-07-20 06:00:00 NR 16.6009 139.589 main 1596 1545 __________P___ -1 16.6009 139.589 7 9 270
1915201N17141 1915 19 WP MM NOT_NAMED 1915-07-20 09:00:00 NR 16.6002 139.141 main 1545 1535 __________P___ -1 16.6002 139.141 7 8 270
1915201N17141 1915 19 WP MM NOT_NAMED 1915-07-20 10:00:00 NR 16.6000 139.000 main 1535 1504 __________O___ -1 16.6000 139.000 7 8 270
1915201N17141 1915 19 WP MM NOT_NAMED 1915-07-20 12:00:00 NR 16.5997 138.733 main 1504 1474 __________P___ -1 16.5997 138.733 7 7 270
1915201N17141 1915 19 WP MM NOT_NAMED 1915-07-20 15:00:00 NR 16.5995 138.364 main 1474 1433 __________P___ -1 16.5995 138.364 7 7 270
1915201N17141 1915 19 WP MM NOT_NAMED 1915-07-20 18:00:00 NR 16.5996 138.024 main 1433 1403 __________P___ -1 16.5996 138.024 7 6 270
1915201N17141 1915 19 WP MM NOT_NAMED 1915-07-20 21:00:00 NR 16.5999 137.704 main 1403 1393 __________P___ -1 16.5999 137.704 7 6 270
1915201N17141 1915 19 WP MM NOT_NAMED 1915-07-20 22:00:00 NR 16.6000 137.600 main 1393 1373 __________O___ -1 16.6000 137.600 7 6 270
1915201N17141 1915 19 WP MM NOT_NAMED 1915-07-21 00:00:00 NR 16.5997 137.396 main 1373 1343 __________P___ -1 16.5997 137.396 7 6 270
1915201N17141 1915 19 WP MM NOT_NAMED 1915-07-21 03:00:00 NR 16.5995 137.104 main 1343 1313 __________P___ -1 16.5995 137.104 7 6 270
1915201N17141 1915 19 WP MM NOT_NAMED 1915-07-21 06:00:00 NR 16.5995 136.813 main 1313 1283 __________P___ -1 16.5995 136.813 7 6 270
1915201N17141 1915 19 WP MM NOT_NAMED 1915-07-21 09:00:00 NR 16.5998 136.508 main 1283 1273 __________P___ -1 16.5998 136.508 7 6 270
1915201N17141 1915 19 WP MM NOT_NAMED 1915-07-21 10:00:00 NR 16.6000 136.400 main 1273 1253 __________O___ -1 16.6000 136.400 7 7 270
1915201N17141 1915 19 WP MM NOT_NAMED 1915-07-21 12:00:00 NR 16.5975 136.159 main 1253 1213 __________P___ -1 16.5975 136.159 7 7 269
1915201N17141 1915 19 WP MM NOT_NAMED 1915-07-21 15:00:00 NR 16.5936 135.779 main 1213 1174 __________P___ -1 16.5936 135.779 7 7 270
1915201N17141 1915 19 WP MM NOT_NAMED 1915-07-21 18:00:00 NR 16.5923 135.393 main 1174 1135 __________P___ -1 16.5923 135.393 7 7 270
1915201N17141 1915 19 WP MM NOT_NAMED 1915-07-21 21:00:00 NR 16.5967 135.019 main 1135 1125 __________P___ -1 16.5967 135.019 7 7 271
1915201N17141 1915 19 WP MM NOT_NAMED 1915-07-21 22:00:00 NR 16.6000 134.900 main 1125 1106 __________O___ -1 16.6000 134.900 7 6 273
1915201N17141 1915 19 WP MM NOT_NAMED 1915-07-22 00:00:00 NR 16.6107 134.683 main 1106 1077 __________P___ -1 16.6107 134.683 7 6 274
1915201N17141 1915 19 WP MM NOT_NAMED 1915-07-22 03:00:00 NR 16.6333 134.376 main 1077 1054 __________P___ -1 16.6333 134.376 7 6 275
1915201N17141 1915 19 WP MM NOT_NAMED 1915-07-22 06:00:00 NR 16.6609 134.084 main 1054 1026 __________P___ -1 16.6609 134.084 7 6 276
1915201N17141 1915 19 WP MM NOT_NAMED 1915-07-22 09:00:00 NR 16.6903 133.796 main 1026 1016 __________P___ -1 16.6903 133.796 7 6 276
1915201N17141 1915 19 WP MM NOT_NAMED 1915-07-22 10:00:00 NR 16.7000 133.700 main 1016 998 __________O___ -1 16.7000 133.700 7 5 274
1915201N17141 1915 19 WP MM NOT_NAMED 1915-07-22 12:00:00 NR 16.7086 133.510 main 998 970 __________P___ -1 16.7086 133.510 7 5 273
1915201N17141 1915 19 WP MM NOT_NAMED 1915-07-22 15:00:00 NR 16.7214 133.226 main 970 942 __________P___ -1 16.7214 133.226 7 6 274
1915201N17141 1915 19 WP MM NOT_NAMED 1915-07-22 18:00:00 NR 16.7425 132.931 main 942 921 __________P___ -1 16.7425 132.931 7 6 276
1915201N17141 1915 19 WP MM NOT_NAMED 1915-07-22 21:00:00 NR 16.7815 132.613 main 921 912 __________P___ -1 16.7815 132.613 7 6 278
1915201N17141 1915 19 WP MM NOT_NAMED 1915-07-22 22:00:00 NR 16.8000 132.500 main 912 886 __________O___ -1 16.8000 132.500 7 7 279
1915201N17141 1915 19 WP MM NOT_NAMED 1915-07-23 00:00:00 NR 16.8365 132.248 main 886 858 __________P___ -1 16.8365 132.248 7 8 280
1915201N17141 1915 19 WP MM NOT_NAMED 1915-07-23 03:00:00 NR 16.9099 131.845 main 858 826 __________P___ -1 16.9099 131.845 7 8 283
1915201N17141 1915 19 WP MM NOT_NAMED 1915-07-23 06:00:00 NR 17.0111 131.431 main 826 792 __________P___ -1 17.0111 131.431 7 8 287
1915201N17141 1915 19 WP MM NOT_NAMED 1915-07-23 09:00:00 NR 17.1463 131.028 main 792 788 __________P___ -1 17.1463 131.028 7 8 290
1915201N17141 1915 19 WP MM NOT_NAMED 1915-07-23 10:00:00 NR 17.2000 130.900 main 788 765 __________O___ -1 17.2000 130.900 7 8 294
1915201N17141 1915 19 WP MM NOT_NAMED 1915-07-23 12:00:00 NR 17.3136 130.632 main 765 740 __________P___ -1 17.3136 130.632 7 8 297
1915201N17141 1915 19 WP MM NOT_NAMED 1915-07-23 15:00:00 NR 17.5155 130.249 main 740 726 __________P___ -1 17.5155 130.249 7 8 303
1915201N17141 1915 19 WP MM NOT_NAMED 1915-07-23 18:00:00 NR 17.7493 129.915 main 726 722 __________P___ -1 17.7493 129.915 7 7 311
1915201N17141 1915 19 WP MM NOT_NAMED 1915-07-23 21:00:00 NR 18.0088 129.661 main 729 720 __________P___ -1 18.0088 129.661 7 7 319
1915201N17141 1915 19 WP MM NOT_NAMED 1915-07-23 22:00:00 NR 18.1000 129.600 main 727 727 __________O___ -1 18.1000 129.600 7 6 333
1915201N17141 1915 19 WP MM NOT_NAMED 1915-07-24 00:00:00 NR 18.2904 129.512 main 734 734 __________P___ -1 18.2904 129.512 7 6 345
1915201N17141 1915 19 WP MM NOT_NAMED 1915-07-24 03:00:00 NR 18.5955 129.463 main 756 756 __________P___ -1 18.5955 129.463 7 6 359
1915201N17141 1915 19 WP MM NOT_NAMED 1915-07-24 06:00:00 NR 18.9071 129.490 main 760 760 __________P___ -1 18.9071 129.490 7 6 9
1915201N17141 1915 19 WP MM NOT_NAMED 1915-07-24 09:00:00 NR 19.2063 129.567 main 773 773 __________P___ -1 19.2063 129.567 7 6 15
1915201N17141 1915 19 WP MM NOT_NAMED 1915-07-24 10:00:00 NR 19.3000 129.600 main 774 774 __________O___ -1 19.3000 129.600 7 5 18
1915201N17141 1915 19 WP MM NOT_NAMED 1915-07-24 12:00:00 NR 19.4645 129.655 main 787 787 __________P___ -1 19.4645 129.655 7 5 22
1915201N17141 1915 19 WP MM NOT_NAMED 1915-07-24 15:00:00 NR 19.6923 129.768 main 801 801 __________P___ -1 19.6923 129.768 7 5 28
1915201N17141 1915 19 WP MM NOT_NAMED 1915-07-24 18:00:00 NR 19.9084 129.906 main 815 815 __________P___ -1 19.9084 129.906 7 5 32
1915201N17141 1915 19 WP MM NOT_NAMED 1915-07-24 21:00:00 NR 20.1254 130.052 main 840 840 __________P___ -1 20.1254 130.052 7 5 32
1915201N17141 1915 19 WP MM NOT_NAMED 1915-07-24 22:00:00 NR 20.2000 130.100 main 842 842 __________O___ -1 20.2000 130.100 7 5 27
1915201N17141 1915 19 WP MM NOT_NAMED 1915-07-25 00:00:00 NR 20.3662 130.186 main 858 858 __________P___ -1 20.3662 130.186 7 6 26
1915201N17141 1915 19 WP MM NOT_NAMED 1915-07-25 03:00:00 NR 20.6219 130.315 main 873 873 __________P___ -1 20.6219 130.315 7 6 25
1915201N17141 1915 19 WP MM NOT_NAMED 1915-07-25 06:00:00 NR 20.8770 130.441 main 892 892 __________P___ -1 20.8770 130.441 7 6 25
1915201N17141 1915 19 WP MM NOT_NAMED 1915-07-25 09:00:00 NR 21.1221 130.562 main 919 919 __________P___ -1 21.1221 130.562 7 5 25
1915201N17141 1915 19 WP MM NOT_NAMED 1915-07-25 10:00:00 NR 21.2000 130.600 main 922 922 __________O___ -1 21.2000 130.600 7 5 29
1915201N17141 1915 19 WP MM NOT_NAMED 1915-07-25 12:00:00 NR 21.3290 130.688 main 936 936 __________P___ -1 21.3290 130.688 7 4 32
1915201N17141 1915 19 WP MM NOT_NAMED 1915-07-25 15:00:00 NR 21.5096 130.814 main 953 953 __________P___ -1 21.5096 130.814 7 4 30
1915201N17141 1915 19 WP MM NOT_NAMED 1915-07-25 18:00:00 NR 21.6968 130.919 main 970 967 __________P___ -1 21.6968 130.919 7 4 22
1915201N17141 1915 19 WP MM NOT_NAMED 1915-07-25 21:00:00 NR 21.9157 130.988 main 973 970 __________P___ -1 21.9157 130.988 7 5 15
1915201N17141 1915 19 WP MM NOT_NAMED 1915-07-25 22:00:00 NR 22.0000 131.000 main 970 963 __________O___ -1 22.0000 131.000 7 6 0
1915201N17141 1915 19 WP MM NOT_NAMED 1915-07-26 00:00:00 NR 22.2095 131.012 main 963 938 __________P___ -1 22.2095 131.012 7 7 358
1915201N17141 1915 19 WP MM NOT_NAMED 1915-07-26 03:00:00 NR 22.5619 130.991 main 938 904 __________P___ -1 22.5619 130.991 7 7 354
1915201N17141 1915 19 WP MM NOT_NAMED 1915-07-26 06:00:00 NR 22.9323 130.931 main 904 859 __________P___ -1 22.9323 130.931 7 7 349
1915201N17141 1915 19 WP MM NOT_NAMED 1915-07-26 09:00:00 NR 23.2893 130.837 main 859 848 __________P___ -1 23.2893 130.837 7 7 346
1915201N17141 1915 19 WP MM NOT_NAMED 1915-07-26 10:00:00 NR 23.4000 130.800 main 848 826 __________O___ -1 23.4000 130.800 3 6 346
1915201N17141 1915 19 WP MM NOT_NAMED 1915-07-26 12:00:00 NR 23.5944 130.754 main 826 792 __________P___ -1 23.5944 130.754 3 6 345
1915201N17141 1915 19 WP MM NOT_NAMED 1915-07-26 15:00:00 NR 23.8610 130.661 main 792 770 __________P___ -1 23.8610 130.661 3 6 337
1915201N17141 1915 19 WP MM NOT_NAMED 1915-07-26 18:00:00 NR 24.1033 130.516 main 770 748 __________P___ -1 24.1033 130.516 3 6 325
1915201N17141 1915 19 WP MM NOT_NAMED 1915-07-26 21:00:00 NR 24.3280 130.295 main 749 738 __________P___ -1 24.3280 130.295 3 6 316
1915201N17141 1915 19 WP MM NOT_NAMED 1915-07-26 22:00:00 NR 24.4000 130.200 main 738 728 __________O___ -1 24.4000 130.200 4 7 306
1915201N17141 1915 19 WP MM NOT_NAMED 1915-07-27 00:00:00 NR 24.5396 129.979 main 729 708 __________P___ -1 24.5396 129.979 4 8 300
1915201N17141 1915 19 WP MM NOT_NAMED 1915-07-27 03:00:00 NR 24.7362 129.571 main 711 694 __________P___ -1 24.7362 129.571 4 9 296
1915201N17141 1915 19 WP MM NOT_NAMED 1915-07-27 06:00:00 NR 24.9284 129.096 main 698 664 __________P___ -1 24.9284 129.096 4 10 294
1915201N17141 1915 19 WP MM NOT_NAMED 1915-07-27 09:00:00 NR 25.1290 128.578 main 664 644 __________P___ -1 25.1290 128.578 4 10 293
1915201N17141 1915 19 WP MM NOT_NAMED 1915-07-27 10:00:00 NR 25.2000 128.400 main 644 604 __________O___ -1 25.2000 128.400 4 11 294
1915201N17141 1915 19 WP MM NOT_NAMED 1915-07-27 12:00:00 NR 25.3501 128.041 main 604 556 __________P___ -1 25.3501 128.041 4 11 296
1915201N17141 1915 19 WP MM NOT_NAMED 1915-07-27 15:00:00 NR 25.5922 127.496 main 556 499 __________P___ -1 25.5922 127.496 4 11 297
1915201N17141 1915 19 WP MM NOT_NAMED 1915-07-27 18:00:00 NR 25.8484 126.944 main 499 457 __________P___ -1 25.8484 126.944 4 11 298
1915201N17141 1915 19 WP MM NOT_NAMED 1915-07-27 21:00:00 NR 26.1118 126.386 main 457 441 __________P___ -1 26.1118 126.386 4 11 298
1915201N17141 1915 19 WP MM NOT_NAMED 1915-07-27 22:00:00 NR 26.2000 126.200 main 441 __________O___ -1 26.2000 126.200 4 11 298

デジタル台風データ・検索

IBTrACS Databaseについて

本データベースは、米国NOAAが公開する1842年以降の世界の熱帯低気圧のベストトラックデータアーカイブInternational Best Track Archive for Climate Stewardship (IBTrACS)を、ウェブで閲覧しやすい形式に変換したものです。

最終更新日:2021-10-19